Maze, Pennsylvania
Current Conditions -  °F | °C
As of 8:53 PM on Thursday 20 Nov 2014 (Local Time) from KSEG Reporting Station
Clear Clear  
Wind Chill: 27°   Ceiling: Unl
Heat Index: 27°   Visibility: 10mi
Dew Point: 10°   Wind: 3mph
Humidity: 49%   Direction: 220°SW
Pressure: 30.05"   Gusts: NA
Location:  40.6058°N, 77.1728°W
Report Text: KSEG 210153Z AUTO 22003KT 10SM CLR M03/M12 A3005 RMK AO2 SLP181 T10281122
Loading
Personal Weather Stations






























Interactive Weather Map New forecast layout! Learn more

10-Day Weather Forecast

Advertisements
Track Severe Weather on mobile